sensor_id;sensor_type;location;lat;lon;timestamp;P1;P4;P2;P0;N10;N4;N25;N1;N05;TS
65875;SPS30;52657;51.128;5.938;2023-09-19T00:01:23;3.23;3.01;2.58;1.94;15.51;15.49;15.37;14.78;11.90;0.76
65875;SPS30;52657;51.128;5.938;2023-09-19T00:03:49;3.76;3.50;2.99;2.25;17.96;17.94;17.80;17.10;13.75;0.76
65875;SPS30;52657;51.128;5.938;2023-09-19T00:06:15;3.17;2.96;2.53;1.91;15.25;15.23;15.11;14.53;11.69;0.77
65875;SPS30;52657;51.128;5.938;2023-09-19T00:08:41;3.44;3.19;2.71;2.01;16.04;16.02;15.89;15.24;12.19;0.79
65875;SPS30;52657;51.128;5.938;2023-09-19T00:11:10;3.63;3.37;2.85;2.09;16.74;16.71;16.57;15.87;12.66;0.78
65875;SPS30;52657;51.128;5.938;2023-09-19T00:13:36;3.62;3.34;2.80;2.02;16.15;16.13;15.98;15.25;12.08;0.78
65875;SPS30;52657;51.128;5.938;2023-09-19T00:16:07;3.70;3.39;2.78;1.94;15.49;15.46;15.30;14.49;11.31;0.81
65875;SPS30;52657;51.128;5.938;2023-09-19T00:18:36;3.70;3.38;2.77;1.91;15.25;15.22;15.06;14.23;11.07;0.82
65875;SPS30;52657;51.128;5.938;2023-09-19T00:21:03;3.66;3.35;2.75;1.90;15.17;15.14;14.98;14.17;11.03;0.83
65875;SPS30;52657;51.128;5.938;2023-09-19T00:23:30;3.86;3.51;2.84;1.91;15.29;15.26;15.08;14.19;10.92;0.85
65875;SPS30;52657;51.128;5.938;2023-09-19T00:25:59;4.50;4.09;3.27;2.16;17.26;17.23;17.01;15.94;12.15;0.85
65875;SPS30;52657;51.128;5.938;2023-09-19T00:28:26;4.36;3.96;3.18;2.10;16.83;16.79;16.59;15.55;11.89;0.84
65875;SPS30;52657;51.128;5.938;2023-09-19T00:30:52;4.16;3.78;3.05;2.03;16.28;16.25;16.06;15.08;11.57;0.82
65875;SPS30;52657;51.128;5.938;2023-09-19T00:33:20;4.22;3.86;3.15;2.16;17.24;17.21;17.02;16.08;12.47;0.80
65875;SPS30;52657;51.128;5.938;2023-09-19T00:35:53;4.30;3.93;3.20;2.18;17.45;17.42;17.22;16.25;12.59;0.81
65875;SPS30;52657;51.128;5.938;2023-09-19T00:38:21;3.91;3.56;2.89;1.96;15.72;15.69;15.52;14.62;11.30;0.80
65875;SPS30;52657;51.128;5.938;2023-09-19T00:40:49;3.89;3.57;2.95;2.07;16.53;16.50;16.34;15.50;12.14;0.78
65875;SPS30;52657;51.128;5.938;2023-09-19T00:43:20;4.03;3.71;3.07;2.18;17.41;17.38;17.21;16.36;12.87;0.81
65875;SPS30;52657;51.128;5.938;2023-09-19T00:45:50;4.09;3.72;3.00;2.00;15.99;15.96;15.77;14.81;11.35;0.83
65875;SPS30;52657;51.128;5.938;2023-09-19T00:48:21;3.86;3.54;2.93;2.07;16.59;16.56;16.40;15.58;12.24;0.79
65875;SPS30;52657;51.128;5.938;2023-09-19T00:50:48;3.63;3.35;2.79;2.00;16.01;15.99;15.84;15.09;11.93;0.76
65875;SPS30;52657;51.128;5.938;2023-09-19T00:53:17;3.52;3.25;2.71;1.94;15.52;15.50;15.35;14.63;11.56;0.78
65875;SPS30;52657;51.128;5.938;2023-09-19T00:55:46;3.46;3.19;2.68;1.94;15.54;15.52;15.38;14.69;11.66;0.77
65875;SPS30;52657;51.128;5.938;2023-09-19T00:58:13;3.75;3.45;2.86;2.03;16.26;16.23;16.07;15.28;12.03;0.79
65875;SPS30;52657;51.128;5.938;2023-09-19T01:00:40;3.85;3.52;2.86;1.95;15.60;15.57;15.40;14.52;11.24;0.82
65875;SPS30;52657;51.128;5.938;2023-09-19T01:03:06;4.27;3.88;3.12;2.07;16.58;16.55;16.35;15.34;11.74;0.83
65875;SPS30;52657;51.128;5.938;2023-09-19T01:05:35;4.13;3.76;3.04;2.04;16.34;16.31;16.12;15.16;11.67;0.83
65875;SPS30;52657;51.128;5.938;2023-09-19T01:08:01;4.12;3.76;3.05;2.08;16.61;16.58;16.39;15.45;11.94;0.83
65875;SPS30;52657;51.128;5.938;2023-09-19T01:10:27;4.49;4.09;3.30;2.21;17.69;17.65;17.44;16.40;12.60;0.84
65875;SPS30;52657;51.128;5.938;2023-09-19T01:13:01;4.42;4.02;3.23;2.15;17.22;17.18;16.97;15.93;12.20;0.84
65875;SPS30;52657;51.128;5.938;2023-09-19T01:23:23;4.05;3.74;3.14;2.27;18.19;18.16;18.00;17.18;13.63;0.79
65875;SPS30;52657;51.128;5.938;2023-09-19T01:32:13;3.63;3.35;2.81;2.03;16.22;16.19;16.05;15.31;12.14;0.81
65875;SPS30;52657;51.128;5.938;2023-09-19T01:37:19;3.41;3.13;2.57;1.79;14.29;14.27;14.12;13.37;10.44;0.83
65875;SPS30;52657;51.128;5.938;2023-09-19T01:40:08;4.06;3.71;3.04;2.09;16.73;16.70;16.52;15.62;12.15;0.83
65875;SPS30;52657;51.128;5.938;2023-09-19T01:51:42;3.39;3.13;2.62;1.89;15.08;15.06;14.92;14.23;11.27;0.78
65875;SPS30;52657;51.128;5.938;2023-09-19T01:54:18;3.80;3.51;2.94;2.12;16.97;16.94;16.79;16.02;12.69;0.77
65875;SPS30;52657;51.128;5.938;2023-09-19T01:57:15;3.50;3.23;2.71;1.96;15.71;15.69;15.55;14.85;11.78;0.77
65875;SPS30;52657;51.128;5.938;2023-09-19T01:59:47;3.59;3.31;2.76;1.97;15.79;15.77;15.62;14.88;11.75;0.78
65875;SPS30;52657;51.128;5.938;2023-09-19T02:02:17;3.74;3.43;2.83;1.99;15.92;15.90;15.74;14.94;11.71;0.79
65875;SPS30;52657;51.128;5.938;2023-09-19T02:04:48;4.01;3.66;2.99;2.05;16.41;16.38;16.20;15.30;11.87;0.81
65875;SPS30;52657;51.128;5.938;2023-09-19T02:07:15;3.62;3.32;2.74;1.92;15.35;15.32;15.17;14.39;11.26;0.79
65875;SPS30;52657;51.128;5.938;2023-09-19T02:09:42;3.98;3.65;3.02;2.13;17.05;17.03;16.86;16.01;12.57;0.77
65875;SPS30;52657;51.128;5.938;2023-09-19T02:12:08;3.90;3.58;2.94;2.06;16.44;16.42;16.25;15.40;12.04;0.77
65875;SPS30;52657;51.128;5.938;2023-09-19T02:14:34;3.89;3.55;2.89;1.98;15.82;15.79;15.61;14.73;11.41;0.80
65875;SPS30;52657;51.128;5.938;2023-09-19T02:17:02;3.63;3.33;2.72;1.88;15.02;15.00;14.84;14.03;10.92;0.79
65875;SPS30;52657;51.128;5.938;2023-09-19T02:19:32;4.30;3.91;3.14;2.08;16.61;16.58;16.37;15.35;11.73;0.82
65875;SPS30;52657;51.128;5.938;2023-09-19T02:21:59;4.10;3.72;2.97;1.95;15.60;15.57;15.37;14.39;10.95;0.85
65875;SPS30;52657;51.128;5.938;2023-09-19T02:24:28;3.57;3.24;2.61;1.74;13.91;13.88;13.72;12.88;9.87;0.84
65875;SPS30;52657;51.128;5.938;2023-09-19T02:26:54;3.61;3.31;2.72;1.90;15.17;15.14;14.99;14.20;11.09;0.82
65875;SPS30;52657;51.128;5.938;2023-09-19T02:29:21;3.70;3.39;2.79;1.94;15.54;15.51;15.35;14.54;11.36;0.82
65875;SPS30;52657;51.128;5.938;2023-09-19T02:31:47;3.88;3.58;3.01;2.17;17.39;17.37;17.21;16.43;13.03;0.79
65875;SPS30;52657;51.128;5.938;2023-09-19T02:34:14;3.68;3.39;2.83;2.03;16.24;16.21;16.06;15.30;12.09;0.81
65875;SPS30;52657;51.128;5.938;2023-09-19T02:36:42;3.66;3.39;2.87;2.10;16.81;16.78;16.64;15.93;12.70;0.81
65875;SPS30;52657;51.128;5.938;2023-09-19T02:39:10;3.40;3.16;2.71;2.03;16.24;16.22;16.10;15.47;12.44;0.78
65875;SPS30;52657;51.128;5.938;2023-09-19T02:41:36;3.45;3.21;2.73;2.03;16.22;16.19;16.07;15.41;12.35;0.78
65875;SPS30;52657;51.128;5.938;2023-09-19T02:44:03;3.83;3.55;2.99;2.18;17.46;17.44;17.29;16.53;13.16;0.79
65875;SPS30;52657;51.128;5.938;2023-09-19T02:46:33;3.69;3.40;2.83;2.02;16.13;16.10;15.95;15.18;11.97;0.81
65875;SPS30;52657;51.128;5.938;2023-09-19T02:49:02;3.96;3.63;2.98;2.06;16.50;16.47;16.30;15.43;12.02;0.83
65875;SPS30;52657;51.128;5.938;2023-09-19T02:51:32;4.10;3.76;3.10;2.18;17.41;17.38;17.21;16.33;12.79;0.81
65875;SPS30;52657;51.128;5.938;2023-09-19T02:54:00;4.03;3.71;3.08;2.19;17.48;17.45;17.29;16.44;12.94;0.80
65875;SPS30;52657;51.128;5.938;2023-09-19T02:56:28;3.65;3.35;2.78;1.96;15.71;15.68;15.53;14.76;11.60;0.80
65875;SPS30;52657;51.128;5.938;2023-09-19T02:58:56;3.54;3.26;2.71;1.92;15.38;15.35;15.21;14.46;11.39;0.79
65875;SPS30;52657;51.128;5.938;2023-09-19T03:01:23;4.01;3.70;3.09;2.21;17.70;17.67;17.51;16.68;13.18;0.80
65875;SPS30;52657;51.128;5.938;2023-09-19T03:03:48;3.44;3.18;2.67;1.93;15.46;15.44;15.30;14.61;11.60;0.79
65875;SPS30;52657;51.128;5.938;2023-09-19T03:06:15;3.67;3.39;2.84;2.06;16.44;16.42;16.27;15.53;12.32;0.77
65875;SPS30;52657;51.128;5.938;2023-09-19T03:08:41;3.85;3.55;2.97;2.14;17.10;17.08;16.92;16.13;12.77;0.78
65875;SPS30;52657;51.128;5.938;2023-09-19T03:11:07;3.88;3.56;2.93;2.05;16.41;16.38;16.21;15.37;12.03;0.81
65875;SPS30;52657;51.128;5.938;2023-09-19T03:13:37;3.79;3.45;2.79;1.88;15.06;15.03;14.86;13.98;10.77;0.84
65875;SPS30;52657;51.128;5.938;2023-09-19T03:16:04;3.78;3.46;2.85;2.00;15.97;15.94;15.78;14.96;11.71;0.81
65875;SPS30;52657;51.128;5.938;2023-09-19T03:18:36;3.90;3.58;2.96;2.08;16.62;16.59;16.42;15.59;12.22;0.82
65875;SPS30;52657;51.128;5.938;2023-09-19T03:21:02;4.04;3.72;3.09;2.20;17.57;17.54;17.37;16.52;13.01;0.80
65875;SPS30;52657;51.128;5.938;2023-09-19T03:23:29;3.44;3.17;2.64;1.90;15.16;15.14;15.00;14.29;11.30;0.81
65875;SPS30;52657;51.128;5.938;2023-09-19T03:25:55;3.88;3.55;2.91;2.01;16.11;16.08;15.91;15.06;11.74;0.82
65875;SPS30;52657;51.128;5.938;2023-09-19T03:28:21;3.98;3.64;2.98;2.06;16.49;16.46;16.28;15.40;11.99;0.83
65875;SPS30;52657;51.128;5.938;2023-09-19T03:31:01;4.03;3.70;3.05;2.15;17.18;17.15;16.98;16.12;12.64;0.83
65875;SPS30;52657;51.128;5.938;2023-09-19T03:33:29;3.94;3.62;2.99;2.10;16.83;16.80;16.64;15.79;12.39;0.82
65875;SPS30;52657;51.128;5.938;2023-09-19T03:35:58;3.70;3.39;2.77;1.90;15.20;15.17;15.01;14.18;11.01;0.81
65875;SPS30;52657;51.128;5.938;2023-09-19T03:38:25;3.58;3.29;2.74;1.95;15.60;15.58;15.43;14.68;11.57;0.79
65875;SPS30;52657;51.128;5.938;2023-09-19T03:40:51;3.79;3.47;2.86;1.99;15.93;15.90;15.74;14.91;11.65;0.80
65875;SPS30;52657;51.128;5.938;2023-09-19T03:43:17;3.71;3.41;2.83;2.00;16.03;16.01;15.85;15.07;11.85;0.78
65875;SPS30;52657;51.128;5.938;2023-09-19T03:45:43;3.74;3.42;2.81;1.95;15.63;15.60;15.44;14.62;11.41;0.80
65875;SPS30;52657;51.128;5.938;2023-09-19T03:48:10;3.81;3.49;2.85;1.96;15.67;15.64;15.47;14.62;11.36;0.81
65875;SPS30;52657;51.128;5.938;2023-09-19T03:50:36;3.50;3.20;2.63;1.83;14.62;14.59;14.44;13.67;10.67;0.81
65875;SPS30;52657;51.128;5.938;2023-09-19T03:53:03;4.26;3.90;3.19;2.20;17.63;17.60;17.41;16.47;12.82;0.82
65875;SPS30;52657;51.128;5.938;2023-09-19T03:55:29;3.79;3.45;2.80;1.89;15.10;15.07;14.89;14.02;10.81;0.84
65875;SPS30;52657;51.128;5.938;2023-09-19T03:57:58;3.95;3.61;2.94;2.02;16.13;16.10;15.93;15.04;11.67;0.82
65875;SPS30;52657;51.128;5.938;2023-09-19T04:00:24;3.90;3.58;2.95;2.06;16.47;16.45;16.28;15.43;12.07;0.81
65875;SPS30;52657;51.128;5.938;2023-09-19T04:02:52;3.79;3.48;2.87;2.02;16.18;16.15;15.99;15.18;11.91;0.80
65875;SPS30;52657;51.128;5.938;2023-09-19T04:05:18;3.81;3.49;2.88;2.02;16.16;16.13;15.97;15.15;11.86;0.81
65875;SPS30;52657;51.128;5.938;2023-09-19T04:07:45;3.74;3.44;2.84;2.00;15.97;15.94;15.79;14.98;11.75;0.82
65875;SPS30;52657;51.128;5.938;2023-09-19T04:10:10;4.32;3.96;3.27;2.28;18.28;18.25;18.06;17.13;13.40;0.82
65875;SPS30;52657;51.128;5.938;2023-09-19T04:12:40;3.79;3.47;2.85;1.97;15.80;15.77;15.61;14.77;11.52;0.81
65875;SPS30;52657;51.128;5.938;2023-09-19T04:15:06;4.18;3.82;3.10;2.10;16.82;16.79;16.60;15.65;12.09;0.83
65875;SPS30;52657;51.128;5.938;2023-09-19T04:17:33;3.75;3.44;2.82;1.95;15.58;15.56;15.39;14.56;11.34;0.84
65875;SPS30;52657;51.128;5.938;2023-09-19T04:19:59;3.89;3.56;2.92;2.03;16.23;16.20;16.03;15.18;11.84;0.83
65875;SPS30;52657;51.128;5.938;2023-09-19T04:22:25;4.19;3.84;3.17;2.21;17.72;17.69;17.51;16.60;12.99;0.81
65875;SPS30;52657;51.128;5.938;2023-09-19T04:24:51;4.07;3.73;3.08;2.16;17.28;17.25;17.08;16.20;12.69;0.82
65875;SPS30;52657;51.128;5.938;2023-09-19T04:27:17;4.04;3.70;3.03;2.10;16.78;16.75;16.57;15.68;12.21;0.83
65875;SPS30;52657;51.128;5.938;2023-09-19T04:29:44;4.33;3.95;3.21;2.18;17.43;17.40;17.20;16.21;12.53;0.84
65875;SPS30;52657;51.128;5.938;2023-09-19T04:32:10;4.20;3.81;3.03;1.98;15.83;15.80;15.59;14.57;11.06;0.85
65875;SPS30;52657;51.128;5.938;2023-09-19T04:34:36;4.22;3.83;3.07;2.03;16.24;16.20;16.00;15.00;11.45;0.83
65875;SPS30;52657;51.128;5.938;2023-09-19T04:37:03;4.48;4.05;3.22;2.08;16.66;16.63;16.41;15.31;11.57;0.85
65875;SPS30;52657;51.128;5.938;2023-09-19T04:39:29;5.04;4.55;3.59;2.30;18.38;18.34;18.09;16.83;12.65;0.85
65875;SPS30;52657;51.128;5.938;2023-09-19T04:41:55;4.76;4.30;3.42;2.21;17.66;17.62;17.39;16.22;12.26;0.86
65875;SPS30;52657;51.128;5.938;2023-09-19T04:44:22;5.19;4.69;3.72;2.39;19.16;19.12;18.87;17.58;13.26;0.87
65875;SPS30;52657;51.128;5.938;2023-09-19T04:46:48;4.70;4.24;3.35;2.13;17.05;17.01;16.78;15.60;11.70;0.88
65875;SPS30;52657;51.128;5.938;2023-09-19T04:49:13;4.96;4.47;3.51;2.22;17.74;17.70;17.45;16.19;12.10;0.89
65875;SPS30;52657;51.128;5.938;2023-09-19T04:51:39;4.80;4.32;3.38;2.11;16.86;16.82;16.57;15.34;11.39;0.90
65875;SPS30;52657;51.128;5.938;2023-09-19T04:54:05;4.93;4.42;3.42;2.08;16.68;16.63;16.37;15.06;11.04;0.92
65875;SPS30;52657;51.128;5.938;2023-09-19T04:56:32;4.65;4.18;3.26;2.03;16.23;16.19;15.95;14.75;10.94;0.91
65875;SPS30;52657;51.128;5.938;2023-09-19T04:58:59;4.16;3.76;2.98;1.92;15.41;15.37;15.17;14.15;10.69;0.89
65875;SPS30;52657;51.128;5.938;2023-09-19T05:01:25;4.12;3.74;2.98;1.95;15.64;15.61;15.41;14.41;10.96;0.87
65875;SPS30;52657;51.128;5.938;2023-09-19T05:03:51;4.74;4.29;3.42;2.22;17.79;17.75;17.52;16.36;12.40;0.88
65875;SPS30;52657;51.128;5.938;2023-09-19T05:06:20;4.48;4.04;3.19;2.03;16.22;16.19;15.96;14.84;11.12;0.89
65875;SPS30;52657;51.128;5.938;2023-09-19T05:08:48;4.70;4.24;3.36;2.16;17.32;17.28;17.05;15.89;11.98;0.87
65875;SPS30;52657;51.128;5.938;2023-09-19T05:11:19;4.12;3.75;3.02;2.02;16.13;16.10;15.90;14.94;11.46;0.85
65875;SPS30;52657;51.128;5.938;2023-09-19T05:13:47;3.77;3.43;2.77;1.85;14.83;14.80;14.62;13.74;10.55;0.85
65875;SPS30;52657;51.128;5.938;2023-09-19T05:16:13;3.96;3.60;2.89;1.92;15.39;15.36;15.17;14.24;10.90;0.83
65875;SPS30;52657;51.128;5.938;2023-09-19T05:18:39;4.42;4.01;3.21;2.11;16.86;16.82;16.61;15.55;11.84;0.84
65875;SPS30;52657;51.128;5.938;2023-09-19T05:21:04;4.77;4.30;3.37;2.12;16.97;16.93;16.68;15.47;11.53;0.88
65875;SPS30;52657;51.128;5.938;2023-09-19T05:23:30;4.66;4.20;3.31;2.10;16.78;16.74;16.51;15.33;11.47;0.88
65875;SPS30;52657;51.128;5.938;2023-09-19T05:25:56;4.98;4.49;3.53;2.23;17.89;17.85;17.60;16.34;12.23;0.88
65875;SPS30;52657;51.128;5.938;2023-09-19T05:28:25;4.46;4.02;3.16;2.01;16.06;16.02;15.79;14.67;10.98;0.88
65875;SPS30;52657;51.128;5.938;2023-09-19T05:30:52;4.62;4.17;3.28;2.08;16.64;16.60;16.37;15.20;11.38;0.88
65875;SPS30;52657;51.128;5.938;2023-09-19T05:33:19;4.22;3.82;3.05;1.99;15.89;15.86;15.65;14.62;11.09;0.86
65875;SPS30;52657;51.128;5.938;2023-09-19T05:35:45;4.41;3.98;3.13;1.98;15.88;15.85;15.63;14.51;10.86;0.88
65875;SPS30;52657;51.128;5.938;2023-09-19T05:38:13;4.95;4.45;3.47;2.15;17.23;17.19;16.93;15.65;11.58;0.89
65875;SPS30;52657;51.128;5.938;2023-09-19T05:40:39;5.15;4.61;3.54;2.11;16.93;16.88;16.60;15.21;11.03;0.91
65875;SPS30;52657;51.128;5.938;2023-09-19T05:43:11;5.50;4.90;3.75;2.22;17.75;17.70;17.40;15.89;11.46;0.92
65875;SPS30;52657;51.128;5.938;2023-09-19T05:45:37;4.74;4.25;3.28;1.98;15.88;15.84;15.58;14.32;10.46;0.90
65875;SPS30;52657;51.128;5.938;2023-09-19T05:48:12;4.68;4.20;3.27;2.01;16.13;16.09;15.84;14.62;10.79;0.89
65875;SPS30;52657;51.128;5.938;2023-09-19T05:50:40;4.65;4.18;3.25;2.00;15.99;15.95;15.71;14.49;10.68;0.88
65875;SPS30;52657;51.128;5.938;2023-09-19T05:53:08;4.90;4.40;3.41;2.09;16.76;16.72;16.46;15.17;11.17;0.88
65875;SPS30;52657;51.128;5.938;2023-09-19T05:55:40;4.53;4.06;3.16;1.95;15.59;15.55;15.31;14.13;10.42;0.88
65875;SPS30;52657;51.128;5.938;2023-09-19T05:58:06;4.51;4.07;3.21;2.04;16.36;16.32;16.10;14.97;11.23;0.86
65875;SPS30;52657;51.128;5.938;2023-09-19T06:00:32;4.78;4.30;3.36;2.09;16.73;16.69;16.44;15.21;11.28;0.87
65875;SPS30;52657;51.128;5.938;2023-09-19T06:03:01;4.61;4.16;3.28;2.09;16.74;16.71;16.48;15.32;11.50;0.86
65875;SPS30;52657;51.128;5.938;2023-09-19T06:05:27;4.71;4.24;3.31;2.06;16.47;16.43;16.19;14.97;11.10;0.91
65875;SPS30;52657;51.128;5.938;2023-09-19T06:07:55;4.32;3.87;3.00;1.82;14.60;14.56;14.33;13.19;9.66;0.93
65875;SPS30;52657;51.128;5.938;2023-09-19T06:10:25;4.60;4.13;3.20;1.95;15.63;15.59;15.34;14.13;10.37;0.91
65875;SPS30;52657;51.128;5.938;2023-09-19T06:12:53;4.70;4.22;3.28;2.02;16.20;16.16;15.91;14.69;10.84;0.88
65875;SPS30;52657;51.128;5.938;2023-09-19T06:15:20;4.54;4.08;3.19;1.99;15.95;15.91;15.68;14.51;10.78;0.85
65875;SPS30;52657;51.128;5.938;2023-09-19T06:17:54;5.02;4.51;3.51;2.18;17.45;17.41;17.15;15.85;11.73;0.86
65875;SPS30;52657;51.128;5.938;2023-09-19T06:20:22;4.48;4.04;3.19;2.02;16.21;16.17;15.95;14.82;11.11;0.84
65875;SPS30;52657;51.128;5.938;2023-09-19T06:22:49;4.14;3.75;2.99;1.95;15.61;15.57;15.37;14.36;10.90;0.82
65875;SPS30;52657;51.128;5.938;2023-09-19T06:25:17;4.60;4.16;3.31;2.14;17.14;17.10;16.88;15.75;11.91;0.84
65875;SPS30;52657;51.128;5.938;2023-09-19T06:27:50;4.06;3.69;2.96;1.96;15.72;15.68;15.49;14.53;11.11;0.83
65875;SPS30;52657;51.128;5.938;2023-09-19T06:30:19;4.05;3.68;2.94;1.92;15.40;15.37;15.18;14.20;10.80;0.84
65875;SPS30;52657;51.128;5.938;2023-09-19T06:32:46;4.06;3.68;2.94;1.93;15.43;15.40;15.20;14.22;10.82;0.84
65875;SPS30;52657;51.128;5.938;2023-09-19T06:35:12;4.32;3.92;3.12;2.03;16.28;16.25;16.04;14.99;11.37;0.85
65875;SPS30;52657;51.128;5.938;2023-09-19T06:37:40;3.98;3.60;2.87;1.86;14.91;14.87;14.68;13.71;10.39;0.85
65875;SPS30;52657;51.128;5.938;2023-09-19T06:40:07;3.88;3.52;2.80;1.83;14.65;14.62;14.43;13.49;10.24;0.85
65875;SPS30;52657;51.128;5.938;2023-09-19T06:42:38;4.26;3.86;3.07;1.99;15.92;15.88;15.68;14.63;11.07;0.85
65875;SPS30;52657;51.128;5.938;2023-09-19T06:45:08;4.47;4.05;3.23;2.11;16.88;16.84;16.63;15.54;11.80;0.86
65875;SPS30;52657;51.128;5.938;2023-09-19T06:47:36;4.53;4.10;3.25;2.09;16.76;16.72;16.50;15.38;11.61;0.86
65875;SPS30;52657;51.128;5.938;2023-09-19T06:50:03;3.93;3.56;2.84;1.86;14.88;14.85;14.66;13.71;10.42;0.84
65875;SPS30;52657;51.128;5.938;2023-09-19T06:52:30;3.81;3.48;2.83;1.94;15.50;15.48;15.30;14.45;11.20;0.79
65875;SPS30;52657;51.128;5.938;2023-09-19T06:54:58;3.93;3.59;2.93;2.01;16.07;16.04;15.86;14.98;11.62;0.80
65875;SPS30;52657;51.128;5.938;2023-09-19T06:57:24;4.25;3.86;3.09;2.04;16.37;16.33;16.13;15.12;11.55;0.83
65875;SPS30;52657;51.128;5.938;2023-09-19T06:59:49;4.34;3.94;3.14;2.04;16.35;16.32;16.11;15.05;11.42;0.85
65875;SPS30;52657;51.128;5.938;2023-09-19T07:02:16;4.18;3.80;3.05;2.02;16.17;16.14;15.94;14.95;11.42;0.83
65875;SPS30;52657;51.128;5.938;2023-09-19T07:04:41;4.44;4.02;3.22;2.11;16.92;16.88;16.67;15.60;11.88;0.83
65875;SPS30;52657;51.128;5.938;2023-09-19T07:07:08;4.09;3.72;2.98;1.98;15.85;15.82;15.63;14.66;11.22;0.84
65875;SPS30;52657;51.128;5.938;2023-09-19T07:09:34;4.29;3.90;3.14;2.08;16.69;16.65;16.45;15.44;11.82;0.84
65875;SPS30;52657;51.128;5.938;2023-09-19T07:12:00;4.04;3.68;3.00;2.05;16.38;16.35;16.16;15.25;11.81;0.82
65875;SPS30;52657;51.128;5.938;2023-09-19T07:14:26;3.77;3.45;2.82;1.94;15.55;15.52;15.36;14.52;11.29;0.82
65875;SPS30;52657;51.128;5.938;2023-09-19T07:16:52;3.61;3.31;2.71;1.87;14.93;14.91;14.75;13.95;10.85;0.83
65875;SPS30;52657;51.128;5.938;2023-09-19T07:19:18;4.05;3.69;2.98;2.01;16.08;16.05;15.86;14.92;11.49;0.83
65875;SPS30;52657;51.128;5.938;2023-09-19T07:21:43;4.41;4.01;3.24;2.17;17.34;17.30;17.10;16.07;12.34;0.84
65875;SPS30;52657;51.128;5.938;2023-09-19T07:24:09;3.93;3.57;2.88;1.93;15.43;15.40;15.22;14.30;10.98;0.83
65875;SPS30;52657;51.128;5.938;2023-09-19T07:26:35;4.23;3.86;3.12;2.11;16.85;16.81;16.62;15.64;12.05;0.82
65875;SPS30;52657;51.128;5.938;2023-09-19T07:29:01;3.64;3.32;2.70;1.83;14.68;14.65;14.49;13.66;10.56;0.82
65875;SPS30;52657;51.128;5.938;2023-09-19T07:31:29;3.26;3.00;2.49;1.77;14.15;14.13;14.00;13.31;10.48;0.79
65875;SPS30;52657;51.128;5.938;2023-09-19T07:33:56;3.52;3.21;2.62;1.80;14.41;14.39;14.23;13.44;10.44;0.82
65875;SPS30;52657;51.128;5.938;2023-09-19T07:36:21;3.78;3.45;2.80;1.90;15.22;15.19;15.02;14.15;10.94;0.81
65875;SPS30;52657;51.128;5.938;2023-09-19T07:38:49;3.78;3.45;2.80;1.90;15.18;15.15;14.98;14.11;10.90;0.81
65875;SPS30;52657;51.128;5.938;2023-09-19T07:41:15;3.54;3.22;2.61;1.76;14.06;14.03;13.87;13.05;10.05;0.81
65875;SPS30;52657;51.128;5.938;2023-09-19T07:43:41;3.89;3.54;2.86;1.92;15.40;15.37;15.19;14.29;11.00;0.81
65875;SPS30;52657;51.128;5.938;2023-09-19T07:46:08;3.79;3.43;2.73;1.78;14.21;14.18;14.00;13.07;9.91;0.83
65875;SPS30;52657;51.128;5.938;2023-09-19T07:48:35;4.53;4.08;3.18;1.98;15.85;15.82;15.58;14.41;10.69;0.87
65875;SPS30;52657;51.128;5.938;2023-09-19T07:51:03;4.21;3.78;2.95;1.82;14.60;14.57;14.35;13.25;9.80;0.88
65875;SPS30;52657;51.128;5.938;2023-09-19T07:53:33;3.92;3.52;2.74;1.70;13.58;13.55;13.34;12.32;9.11;0.90
65875;SPS30;52657;51.128;5.938;2023-09-19T07:56:04;4.56;4.09;3.18;1.95;15.62;15.58;15.34;14.14;10.41;0.92
65875;SPS30;52657;51.128;5.938;2023-09-19T07:58:30;4.22;3.80;2.98;1.86;14.93;14.89;14.67;13.59;10.12;0.90
65875;SPS30;52657;51.128;5.938;2023-09-19T08:01:01;4.26;3.84;3.03;1.93;15.45;15.42;15.20;14.14;10.61;0.88
65875;SPS30;52657;51.128;5.938;2023-09-19T08:03:32;4.28;3.87;3.05;1.95;15.62;15.58;15.37;14.30;10.75;0.86
65875;SPS30;52657;51.128;5.938;2023-09-19T08:05:59;4.04;3.67;2.95;1.96;15.70;15.67;15.48;14.52;11.12;0.83
65875;SPS30;52657;51.128;5.938;2023-09-19T08:08:26;3.62;3.29;2.65;1.76;14.10;14.07;13.90;13.04;9.99;0.85
65875;SPS30;52657;51.128;5.938;2023-09-19T08:10:56;3.80;3.46;2.79;1.87;14.97;14.94;14.77;13.88;10.67;0.84
65875;SPS30;52657;51.128;5.938;2023-09-19T08:13:25;3.72;3.38;2.72;1.81;14.45;14.42;14.25;13.37;10.24;0.84
65875;SPS30;52657;51.128;5.938;2023-09-19T08:15:52;3.54;3.23;2.63;1.79;14.32;14.29;14.13;13.33;10.31;0.84
65875;SPS30;52657;51.128;5.938;2023-09-19T08:18:20;3.42;3.12;2.54;1.73;13.86;13.83;13.68;12.90;9.99;0.84
65875;SPS30;52657;51.128;5.938;2023-09-19T08:20:50;3.79;3.46;2.83;1.95;15.62;15.60;15.43;14.59;11.34;0.85
65875;SPS30;52657;51.128;5.938;2023-09-19T08:23:17;3.13;2.89;2.42;1.74;13.92;13.90;13.77;13.13;10.39;0.81
65875;SPS30;52657;51.128;5.938;2023-09-19T08:25:48;3.02;2.81;2.39;1.77;14.18;14.16;14.04;13.47;10.79;0.77
65875;SPS30;52657;51.128;5.938;2023-09-19T08:28:14;2.49;2.30;1.95;1.44;11.52;11.50;11.41;10.93;8.73;0.77
65875;SPS30;52657;51.128;5.938;2023-09-19T08:30:45;3.08;2.84;2.36;1.69;13.54;13.52;13.40;12.76;10.08;0.81
65875;SPS30;52657;51.128;5.938;2023-09-19T08:33:11;3.47;3.17;2.60;1.81;14.45;14.43;14.28;13.52;10.54;0.83
65875;SPS30;52657;51.128;5.938;2023-09-19T08:35:37;3.39;3.09;2.53;1.73;13.86;13.83;13.68;12.92;10.03;0.84
65875;SPS30;52657;51.128;5.938;2023-09-19T08:38:05;3.52;3.22;2.63;1.80;14.44;14.41;14.25;13.47;10.45;0.85
65875;SPS30;52657;51.128;5.938;2023-09-19T08:40:31;3.60;3.28;2.65;1.78;14.26;14.23;14.06;13.23;10.18;0.86
65875;SPS30;52657;51.128;5.938;2023-09-19T08:42:59;3.25;2.96;2.38;1.59;12.70;12.68;12.52;11.76;9.02;0.86
65875;SPS30;52657;51.128;5.938;2023-09-19T08:45:26;4.15;3.77;3.02;2.00;15.98;15.95;15.75;14.77;11.28;0.88
65875;SPS30;52657;51.128;5.938;2023-09-19T08:47:59;3.36;3.06;2.48;1.68;13.40;13.38;13.22;12.45;9.60;0.86
65875;SPS30;52657;51.128;5.938;2023-09-19T08:53:19;3.69;3.37;2.73;1.85;14.77;14.74;14.57;13.72;10.59;0.86
65875;SPS30;52657;51.128;5.938;2023-09-19T08:55:52;3.31;3.02;2.45;1.66;13.31;13.29;13.14;12.38;9.57;0.84
65875;SPS30;52657;51.128;5.938;2023-09-19T08:58:21;4.04;3.69;3.00;2.04;16.32;16.29;16.11;15.19;11.74;0.83
65875;SPS30;52657;51.128;5.938;2023-09-19T09:00:54;3.97;3.60;2.88;1.90;15.18;15.15;14.96;14.01;10.68;0.84
65875;SPS30;52657;51.128;5.938;2023-09-19T09:03:23;3.78;3.44;2.77;1.85;14.78;14.75;14.57;13.69;10.49;0.84
65875;SPS30;52657;51.128;5.938;2023-09-19T09:05:51;3.69;3.35;2.67;1.75;13.98;13.95;13.77;12.88;9.79;0.84
65875;SPS30;52657;51.128;5.938;2023-09-19T09:08:18;3.65;3.31;2.66;1.77;14.14;14.12;13.94;13.08;10.01;0.84
65875;SPS30;52657;51.128;5.938;2023-09-19T09:10:45;3.51;3.21;2.61;1.78;14.23;14.20;14.05;13.25;10.26;0.82
65875;SPS30;52657;51.128;5.938;2023-09-19T09:13:11;3.68;3.38;2.80;1.97;15.76;15.73;15.57;14.79;11.61;0.81
65875;SPS30;52657;51.128;5.938;2023-09-19T09:15:39;2.88;2.66;2.23;1.61;12.92;12.90;12.78;12.20;9.68;0.80
65875;SPS30;52657;51.128;5.938;2023-09-19T09:18:06;3.38;3.12;2.61;1.88;15.05;15.03;14.89;14.20;11.25;0.80
65875;SPS30;52657;51.128;5.938;2023-09-19T09:20:32;3.33;3.06;2.52;1.77;14.15;14.12;13.98;13.26;10.38;0.81
65875;SPS30;52657;51.128;5.938;2023-09-19T09:22:59;3.10;2.85;2.36;1.67;13.38;13.36;13.23;12.58;9.89;0.80
65875;SPS30;52657;51.128;5.938;2023-09-19T09:28:25;3.16;2.92;2.44;1.75;13.99;13.97;13.84;13.19;10.43;0.80
65875;SPS30;52657;51.128;5.938;2023-09-19T09:30:59;3.02;2.79;2.32;1.66;13.27;13.25;13.13;12.50;9.87;0.81
65875;SPS30;52657;51.128;5.938;2023-09-19T09:33:33;3.08;2.84;2.36;1.69;13.49;13.46;13.34;12.69;10.01;0.80
65875;SPS30;52657;51.128;5.938;2023-09-19T09:36:01;3.49;3.22;2.71;1.98;15.81;15.78;15.65;14.95;11.89;0.78
65875;SPS30;52657;51.128;5.938;2023-09-19T09:38:30;3.21;2.96;2.49;1.80;14.42;14.40;14.27;13.63;10.82;0.80
65875;SPS30;52657;51.128;5.938;2023-09-19T09:41:09;2.96;2.74;2.30;1.66;13.30;13.28;13.16;12.57;9.97;0.81
65875;SPS30;52657;51.128;5.938;2023-09-19T09:43:40;3.00;2.76;2.30;1.64;13.12;13.09;12.97;12.35;9.73;0.80
65875;SPS30;52657;51.128;5.938;2023-09-19T09:48:45;3.44;3.13;2.53;1.71;13.69;13.66;13.50;12.71;9.80;0.83